sensor_id;sensor_type;location;lat;lon;timestamp;pressure;altitude;pressure_sealevel;temperature;humidity
70015;BME280;57358;51.094;6.760;2023-03-11T00:00:26;99891.22;;;-0.95;100.00
70015;BME280;57358;51.094;6.760;2023-03-11T00:02:54;99871.91;;;-0.72;100.00
70015;BME280;57358;51.094;6.760;2023-03-11T00:05:25;100075.09;;;0.43;100.00
70015;BME280;57358;51.094;6.760;2023-03-11T00:07:54;100130.44;;;0.70;100.00
70015;BME280;57358;51.094;6.760;2023-03-11T00:10:24;100121.16;;;0.63;100.00
70015;BME280;57358;51.094;6.760;2023-03-11T00:12:53;100028.69;;;-0.04;100.00
70015;BME280;57358;51.094;6.760;2023-03-11T00:15:20;99942.09;;;-0.59;100.00
70015;BME280;57358;51.094;6.760;2023-03-11T00:17:47;100012.38;;;-0.06;100.00
70015;BME280;57358;51.094;6.760;2023-03-11T00:20:23;100133.13;;;0.65;100.00
70015;BME280;57358;51.094;6.760;2023-03-11T00:22:50;100044.78;;;0.09;100.00
70015;BME280;57358;51.094;6.760;2023-03-11T00:25:17;100046.47;;;0.10;100.00
70015;BME280;57358;51.094;6.760;2023-03-11T00:27:45;100037.25;;;-0.02;100.00
70015;BME280;57358;51.094;6.760;2023-03-11T00:30:13;100035.78;;;-0.14;100.00
70015;BME280;57358;51.094;6.760;2023-03-11T00:32:39;99893.06;;;-1.03;100.00
70015;BME280;57358;51.094;6.760;2023-03-11T00:35:07;99971.72;;;-0.82;100.00
70015;BME280;57358;51.094;6.760;2023-03-11T00:37:35;100119.78;;;0.45;100.00
70015;BME280;57358;51.094;6.760;2023-03-11T00:40:01;100154.00;;;0.54;100.00
70015;BME280;57358;51.094;6.760;2023-03-11T00:42:28;100160.13;;;0.50;100.00
70015;BME280;57358;51.094;6.760;2023-03-11T00:44:54;100096.38;;;0.10;100.00
70015;BME280;57358;51.094;6.760;2023-03-11T00:47:20;99651.25;;;-2.52;100.00
70015;BME280;57358;51.094;6.760;2023-03-11T00:49:47;100088.84;;;-0.02;100.00
70015;BME280;57358;51.094;6.760;2023-03-11T00:52:13;99923.00;;;-0.96;100.00
70015;BME280;57358;51.094;6.760;2023-03-11T00:54:40;100072.50;;;-0.03;100.00
70015;BME280;57358;51.094;6.760;2023-03-11T00:57:06;99962.03;;;-0.69;100.00
70015;BME280;57358;51.094;6.760;2023-03-11T00:59:34;100121.72;;;0.32;100.00
70015;BME280;57358;51.094;6.760;2023-03-11T01:02:00;100166.75;;;0.62;100.00
70015;BME280;57358;51.094;6.760;2023-03-11T01:04:27;100108.28;;;0.16;100.00
70015;BME280;57358;51.094;6.760;2023-03-11T01:06:53;100079.31;;;0.02;100.00
70015;BME280;57358;51.094;6.760;2023-03-11T01:09:20;100026.78;;;-0.39;100.00
70015;BME280;57358;51.094;6.760;2023-03-11T01:11:46;100079.53;;;-0.11;100.00
70015;BME280;57358;51.094;6.760;2023-03-11T01:14:13;100021.69;;;-0.44;100.00
70015;BME280;57358;51.094;6.760;2023-03-11T01:16:39;100094.94;;;-0.06;100.00
70015;BME280;57358;51.094;6.760;2023-03-11T01:19:06;100050.69;;;-0.30;100.00
70015;BME280;57358;51.094;6.760;2023-03-11T01:21:32;99931.81;;;-1.09;100.00
70015;BME280;57358;51.094;6.760;2023-03-11T01:23:59;99964.31;;;-1.02;100.00
70015;BME280;57358;51.094;6.760;2023-03-11T01:26:25;100052.50;;;-0.36;100.00
70015;BME280;57358;51.094;6.760;2023-03-11T01:28:52;100067.84;;;-0.30;100.00
70015;BME280;57358;51.094;6.760;2023-03-11T01:31:18;100037.53;;;-0.64;100.00
70015;BME280;57358;51.094;6.760;2023-03-11T01:33:44;100205.09;;;0.37;100.00
70015;BME280;57358;51.094;6.760;2023-03-11T01:36:13;100088.59;;;-0.36;100.00
70015;BME280;57358;51.094;6.760;2023-03-11T01:38:40;99774.47;;;-2.48;100.00
70015;BME280;57358;51.094;6.760;2023-03-11T01:41:06;100129.81;;;-0.33;100.00
70015;BME280;57358;51.094;6.760;2023-03-11T01:46:10;100201.31;;;0.08;100.00
70015;BME280;57358;51.094;6.760;2023-03-11T01:48:37;100143.63;;;-0.37;100.00
70015;BME280;57358;51.094;6.760;2023-03-11T01:51:05;100129.13;;;-0.46;100.00
70015;BME280;57358;51.094;6.760;2023-03-11T01:53:32;100114.16;;;-0.78;100.00
70015;BME280;57358;51.094;6.760;2023-03-11T01:56:01;100154.88;;;-0.43;100.00
70015;BME280;57358;51.094;6.760;2023-03-11T01:58:33;99973.75;;;-1.58;100.00
70015;BME280;57358;51.094;6.760;2023-03-11T02:01:02;100216.22;;;-0.11;100.00
70015;BME280;57358;51.094;6.760;2023-03-11T02:03:34;100217.16;;;-0.15;100.00
70015;BME280;57358;51.094;6.760;2023-03-11T02:06:05;100092.94;;;-0.94;100.00
70015;BME280;57358;51.094;6.760;2023-03-11T02:08:33;100070.09;;;-1.16;100.00
70015;BME280;57358;51.094;6.760;2023-03-11T02:11:01;100120.22;;;-0.79;100.00
70015;BME280;57358;51.094;6.760;2023-03-11T02:13:29;100142.38;;;-0.69;100.00
70015;BME280;57358;51.094;6.760;2023-03-11T02:15:57;100002.75;;;-1.47;100.00
70015;BME280;57358;51.094;6.760;2023-03-11T02:18:25;100124.38;;;-0.72;100.00
70015;BME280;57358;51.094;6.760;2023-03-11T02:24:09;100167.16;;;-0.61;100.00
70015;BME280;57358;51.094;6.760;2023-03-11T02:29:14;100019.03;;;-1.45;100.00
70015;BME280;57358;51.094;6.760;2023-03-11T02:31:41;100224.25;;;-0.29;100.00
70015;BME280;57358;51.094;6.760;2023-03-11T02:34:15;100168.28;;;-0.78;100.00
70015;BME280;57358;51.094;6.760;2023-03-11T02:36:42;100111.28;;;-1.16;100.00
70015;BME280;57358;51.094;6.760;2023-03-11T02:39:08;100005.69;;;-1.73;100.00
70015;BME280;57358;51.094;6.760;2023-03-11T02:41:41;100215.91;;;-0.45;100.00
70015;BME280;57358;51.094;6.760;2023-03-11T02:44:10;100160.78;;;-0.94;100.00
70015;BME280;57358;51.094;6.760;2023-03-11T02:46:39;100227.22;;;-0.54;100.00
70015;BME280;57358;51.094;6.760;2023-03-11T02:49:08;100163.38;;;-0.97;100.00
70015;BME280;57358;51.094;6.760;2023-03-11T02:51:35;100152.41;;;-1.08;100.00
70015;BME280;57358;51.094;6.760;2023-03-11T02:54:03;100213.72;;;-0.71;100.00
70015;BME280;57358;51.094;6.760;2023-03-11T02:56:30;100021.13;;;-1.75;100.00
70015;BME280;57358;51.094;6.760;2023-03-11T02:58:57;99932.81;;;-2.41;100.00
70015;BME280;57358;51.094;6.760;2023-03-11T03:01:23;100225.69;;;-0.69;100.00
70015;BME280;57358;51.094;6.760;2023-03-11T03:03:49;100110.69;;;-1.36;100.00
70015;BME280;57358;51.094;6.760;2023-03-11T03:06:16;100156.00;;;-1.22;100.00
70015;BME280;57358;51.094;6.760;2023-03-11T03:08:43;100229.09;;;-0.67;100.00
70015;BME280;57358;51.094;6.760;2023-03-11T03:11:10;100025.59;;;-1.89;100.00
70015;BME280;57358;51.094;6.760;2023-03-11T03:13:36;100143.13;;;-1.23;100.00
70015;BME280;57358;51.094;6.760;2023-03-11T03:16:03;100228.38;;;-0.76;100.00
70015;BME280;57358;51.094;6.760;2023-03-11T03:18:30;100184.06;;;-1.02;100.00
70015;BME280;57358;51.094;6.760;2023-03-11T03:20:56;100101.59;;;-1.65;100.00
70015;BME280;57358;51.094;6.760;2023-03-11T03:23:22;100090.63;;;-1.78;100.00
70015;BME280;57358;51.094;6.760;2023-03-11T03:25:49;100103.28;;;-1.63;100.00
70015;BME280;57358;51.094;6.760;2023-03-11T03:28:15;99953.59;;;-2.62;100.00
70015;BME280;57358;51.094;6.760;2023-03-11T03:30:42;100040.44;;;-2.13;100.00
70015;BME280;57358;51.094;6.760;2023-03-11T03:33:08;100032.84;;;-2.25;100.00
70015;BME280;57358;51.094;6.760;2023-03-11T03:35:39;100233.94;;;-1.10;100.00
70015;BME280;57358;51.094;6.760;2023-03-11T03:38:06;100242.53;;;-1.11;100.00
70015;BME280;57358;51.094;6.760;2023-03-11T03:40:32;100029.66;;;-2.49;100.00
70015;BME280;57358;51.094;6.760;2023-03-11T03:42:59;100160.78;;;-1.65;100.00
70015;BME280;57358;51.094;6.760;2023-03-11T03:45:25;100259.78;;;-1.18;100.00
70015;BME280;57358;51.094;6.760;2023-03-11T03:47:51;99997.44;;;-2.81;100.00
70015;BME280;57358;51.094;6.760;2023-03-11T03:50:18;100257.16;;;-1.15;100.00
70015;BME280;57358;51.094;6.760;2023-03-11T03:52:45;100031.56;;;-2.66;100.00
70015;BME280;57358;51.094;6.760;2023-03-11T03:55:11;100104.75;;;-2.19;100.00
70015;BME280;57358;51.094;6.760;2023-03-11T03:57:37;100225.03;;;-1.59;100.00
70015;BME280;57358;51.094;6.760;2023-03-11T04:00:05;100252.28;;;-1.38;100.00
70015;BME280;57358;51.094;6.760;2023-03-11T04:02:34;100185.94;;;-1.93;100.00
70015;BME280;57358;51.094;6.760;2023-03-11T04:05:00;100174.78;;;-1.92;100.00
70015;BME280;57358;51.094;6.760;2023-03-11T04:07:27;100245.81;;;-1.79;100.00
70015;BME280;57358;51.094;6.760;2023-03-11T04:09:53;99973.00;;;-3.25;100.00
70015;BME280;57358;51.094;6.760;2023-03-11T04:12:20;100103.31;;;-2.48;100.00
70015;BME280;57358;51.094;6.760;2023-03-11T04:14:46;100007.00;;;-2.99;100.00
70015;BME280;57358;51.094;6.760;2023-03-11T04:17:14;100277.13;;;-1.37;100.00
70015;BME280;57358;51.094;6.760;2023-03-11T04:19:43;100260.16;;;-1.52;100.00
70015;BME280;57358;51.094;6.760;2023-03-11T04:22:09;100159.63;;;-2.25;100.00
70015;BME280;57358;51.094;6.760;2023-03-11T04:24:36;100127.22;;;-2.41;100.00
70015;BME280;57358;51.094;6.760;2023-03-11T04:27:02;100089.00;;;-2.76;100.00
70015;BME280;57358;51.094;6.760;2023-03-11T04:29:28;100136.59;;;-2.32;100.00
70015;BME280;57358;51.094;6.760;2023-03-11T04:31:55;100195.44;;;-2.00;100.00
70015;BME280;57358;51.094;6.760;2023-03-11T04:34:22;100201.38;;;-1.95;100.00
70015;BME280;57358;51.094;6.760;2023-03-11T04:36:51;100226.91;;;-1.73;100.00
70015;BME280;57358;51.094;6.760;2023-03-11T04:39:18;100146.81;;;-2.28;100.00
70015;BME280;57358;51.094;6.760;2023-03-11T04:41:45;100202.19;;;-1.91;100.00
70015;BME280;57358;51.094;6.760;2023-03-11T04:44:11;100265.38;;;-1.63;100.00
70015;BME280;57358;51.094;6.760;2023-03-11T04:46:38;100190.34;;;-2.09;100.00
70015;BME280;57358;51.094;6.760;2023-03-11T04:49:04;100244.22;;;-1.92;100.00
70015;BME280;57358;51.094;6.760;2023-03-11T04:51:31;100232.94;;;-1.77;100.00
70015;BME280;57358;51.094;6.760;2023-03-11T04:54:00;100303.00;;;-1.46;100.00
70015;BME280;57358;51.094;6.760;2023-03-11T04:56:26;100280.75;;;-1.56;100.00
70015;BME280;57358;51.094;6.760;2023-03-11T04:58:52;100245.81;;;-1.77;100.00
70015;BME280;57358;51.094;6.760;2023-03-11T05:01:19;100264.59;;;-1.69;100.00
70015;BME280;57358;51.094;6.760;2023-03-11T05:03:46;100094.88;;;-2.65;100.00
70015;BME280;57358;51.094;6.760;2023-03-11T05:06:12;100213.50;;;-2.11;100.00
70015;BME280;57358;51.094;6.760;2023-03-11T05:08:39;100035.13;;;-2.89;100.00
70015;BME280;57358;51.094;6.760;2023-03-11T05:11:08;100334.41;;;-1.12;100.00
70015;BME280;57358;51.094;6.760;2023-03-11T05:13:34;100251.78;;;-1.78;100.00
70015;BME280;57358;51.094;6.760;2023-03-11T05:16:00;100030.09;;;-2.96;100.00
70015;BME280;57358;51.094;6.760;2023-03-11T05:18:27;99993.47;;;-3.23;100.00
70015;BME280;57358;51.094;6.760;2023-03-11T05:20:55;100246.63;;;-1.75;100.00
70015;BME280;57358;51.094;6.760;2023-03-11T05:23:21;100336.16;;;-1.18;100.00
70015;BME280;57358;51.094;6.760;2023-03-11T05:25:48;100175.16;;;-2.34;100.00
70015;BME280;57358;51.094;6.760;2023-03-11T05:28:14;100039.53;;;-3.02;100.00
70015;BME280;57358;51.094;6.760;2023-03-11T05:30:40;100130.69;;;-2.47;100.00
70015;BME280;57358;51.094;6.760;2023-03-11T05:33:07;100224.56;;;-2.01;100.00
70015;BME280;57358;51.094;6.760;2023-03-11T05:35:33;100306.34;;;-1.39;100.00
70015;BME280;57358;51.094;6.760;2023-03-11T05:38:02;100145.19;;;-2.39;100.00
70015;BME280;57358;51.094;6.760;2023-03-11T05:40:28;100347.34;;;-1.18;100.00
70015;BME280;57358;51.094;6.760;2023-03-11T05:42:55;100210.88;;;-2.02;100.00
70015;BME280;57358;51.094;6.760;2023-03-11T05:45:21;100234.72;;;-1.87;100.00
70015;BME280;57358;51.094;6.760;2023-03-11T05:47:48;100131.56;;;-2.48;100.00
70015;BME280;57358;51.094;6.760;2023-03-11T05:50:14;100364.41;;;-1.09;100.00
70015;BME280;57358;51.094;6.760;2023-03-11T05:52:40;100361.00;;;-1.10;100.00
70015;BME280;57358;51.094;6.760;2023-03-11T05:55:10;100111.06;;;-2.54;100.00
70015;BME280;57358;51.094;6.760;2023-03-11T05:57:38;100365.25;;;-1.06;100.00
70015;BME280;57358;51.094;6.760;2023-03-11T06:00:06;100363.50;;;-1.07;100.00
70015;BME280;57358;51.094;6.760;2023-03-11T06:02:38;100370.41;;;-1.07;100.00
70015;BME280;57358;51.094;6.760;2023-03-11T06:05:06;100363.56;;;-1.10;100.00
70015;BME280;57358;51.094;6.760;2023-03-11T06:07:34;100391.84;;;-1.05;100.00
70015;BME280;57358;51.094;6.760;2023-03-11T06:10:03;100250.97;;;-1.81;100.00
70015;BME280;57358;51.094;6.760;2023-03-11T06:12:33;100361.84;;;-1.11;100.00
70015;BME280;57358;51.094;6.760;2023-03-11T06:14:59;100282.69;;;-1.80;100.00
70015;BME280;57358;51.094;6.760;2023-03-11T06:17:25;100196.44;;;-2.18;100.00
70015;BME280;57358;51.094;6.760;2023-03-11T06:19:55;100190.50;;;-2.26;100.00
70015;BME280;57358;51.094;6.760;2023-03-11T06:22:21;100322.63;;;-1.36;100.00
70015;BME280;57358;51.094;6.760;2023-03-11T06:24:48;100310.00;;;-1.64;100.00
70015;BME280;57358;51.094;6.760;2023-03-11T06:27:14;100274.81;;;-1.63;100.00
70015;BME280;57358;51.094;6.760;2023-03-11T06:29:40;100371.22;;;-1.02;100.00
70015;BME280;57358;51.094;6.760;2023-03-11T06:32:07;100407.03;;;-0.77;100.00
70015;BME280;57358;51.094;6.760;2023-03-11T06:34:33;100391.06;;;-1.12;100.00
70015;BME280;57358;51.094;6.760;2023-03-11T06:37:00;100376.47;;;-1.14;100.00
70015;BME280;57358;51.094;6.760;2023-03-11T06:39:26;100251.78;;;-1.78;100.00
70015;BME280;57358;51.094;6.760;2023-03-11T06:41:52;100246.75;;;-1.88;100.00
70015;BME280;57358;51.094;6.760;2023-03-11T06:44:19;100429.38;;;-0.83;100.00
70015;BME280;57358;51.094;6.760;2023-03-11T06:46:45;100336.34;;;-1.38;100.00
70015;BME280;57358;51.094;6.760;2023-03-11T06:49:12;100325.25;;;-1.44;100.00
70015;BME280;57358;51.094;6.760;2023-03-11T06:51:38;100257.09;;;-1.94;100.00
70015;BME280;57358;51.094;6.760;2023-03-11T06:54:05;99938.44;;;-4.03;100.00
70015;BME280;57358;51.094;6.760;2023-03-11T06:56:31;100376.69;;;-1.39;100.00
70015;BME280;57358;51.094;6.760;2023-03-11T06:58:58;100307.69;;;-1.99;100.00
70015;BME280;57358;51.094;6.760;2023-03-11T07:01:25;100325.38;;;-1.57;100.00
70015;BME280;57358;51.094;6.760;2023-03-11T07:03:53;100263.13;;;-1.98;100.00
70015;BME280;57358;51.094;6.760;2023-03-11T07:06:26;100231.59;;;-2.22;100.00
70015;BME280;57358;51.094;6.760;2023-03-11T07:08:53;100443.28;;;-0.99;100.00
70015;BME280;57358;51.094;6.760;2023-03-11T07:11:22;100493.59;;;-0.58;100.00
70015;BME280;57358;51.094;6.760;2023-03-11T07:13:49;100401.63;;;-1.44;100.00
70015;BME280;57358;51.094;6.760;2023-03-11T07:16:18;100310.94;;;-1.78;100.00
70015;BME280;57358;51.094;6.760;2023-03-11T07:18:48;100497.72;;;-0.40;100.00
70015;BME280;57358;51.094;6.760;2023-03-11T07:21:17;100507.97;;;-0.34;100.00
70015;BME280;57358;51.094;6.760;2023-03-11T07:23:45;100502.81;;;-0.35;100.00
70015;BME280;57358;51.094;6.760;2023-03-11T07:26:15;100512.16;;;-0.27;100.00
70015;BME280;57358;51.094;6.760;2023-03-11T07:28:45;100494.44;;;-0.56;100.00
70015;BME280;57358;51.094;6.760;2023-03-11T07:31:15;100527.69;;;-0.33;100.00
70015;BME280;57358;51.094;6.760;2023-03-11T07:33:42;100419.31;;;-1.07;100.00
70015;BME280;57358;51.094;6.760;2023-03-11T07:36:12;100491.72;;;-0.44;100.00
70015;BME280;57358;51.094;6.760;2023-03-11T07:38:39;100386.75;;;-1.14;100.00
70015;BME280;57358;51.094;6.760;2023-03-11T07:41:08;100531.03;;;-0.20;100.00
70015;BME280;57358;51.094;6.760;2023-03-11T07:43:36;100094.41;;;-3.19;100.00
70015;BME280;57358;51.094;6.760;2023-03-11T07:46:09;100417.47;;;-0.94;100.00
70015;BME280;57358;51.094;6.760;2023-03-11T07:48:37;100532.56;;;-0.07;100.00
70015;BME280;57358;51.094;6.760;2023-03-11T07:51:06;100542.81;;;0.01;100.00
70015;BME280;57358;51.094;6.760;2023-03-11T07:53:33;100517.91;;;0.00;100.00
70015;BME280;57358;51.094;6.760;2023-03-11T07:56:00;100362.53;;;-0.93;100.00
70015;BME280;57358;51.094;6.760;2023-03-11T07:58:27;100382.84;;;-0.67;100.00
70015;BME280;57358;51.094;6.760;2023-03-11T08:00:53;100514.19;;;0.23;100.00
70015;BME280;57358;51.094;6.760;2023-03-11T08:03:23;100357.09;;;-0.67;100.00
70015;BME280;57358;51.094;6.760;2023-03-11T08:05:50;100316.09;;;-0.89;100.00
70015;BME280;57358;51.094;6.760;2023-03-11T08:08:19;100487.38;;;0.31;100.00
70015;BME280;57358;51.094;6.760;2023-03-11T08:10:45;100356.78;;;-0.41;100.00
70015;BME280;57358;51.094;6.760;2023-03-11T08:13:12;100267.13;;;-0.84;100.00
70015;BME280;57358;51.094;6.760;2023-03-11T08:15:38;100422.94;;;0.28;100.00
70015;BME280;57358;51.094;6.760;2023-03-11T08:18:05;100526.94;;;0.94;100.00
70015;BME280;57358;51.094;6.760;2023-03-11T08:20:32;100355.50;;;-0.09;100.00
70015;BME280;57358;51.094;6.760;2023-03-11T08:22:58;100400.38;;;0.39;100.00
70015;BME280;57358;51.094;6.760;2023-03-11T08:25:25;100512.75;;;1.19;100.00
70015;BME280;57358;51.094;6.760;2023-03-11T08:27:51;100397.44;;;0.63;100.00
70015;BME280;57358;51.094;6.760;2023-03-11T08:30:18;100351.47;;;0.30;100.00
70015;BME280;57358;51.094;6.760;2023-03-11T08:32:44;100466.22;;;1.21;100.00
70015;BME280;57358;51.094;6.760;2023-03-11T08:35:11;100458.56;;;1.16;99.94
70015;BME280;57358;51.094;6.760;2023-03-11T08:37:38;100501.97;;;1.46;98.46
70015;BME280;57358;51.094;6.760;2023-03-11T08:40:05;100376.88;;;1.06;96.57
70015;BME280;57358;51.094;6.760;2023-03-11T08:42:32;100394.69;;;1.22;95.51
70015;BME280;57358;51.094;6.760;2023-03-11T08:45:02;100364.38;;;1.30;93.85
70015;BME280;57358;51.094;6.760;2023-03-11T08:47:33;100422.88;;;1.81;92.61
70015;BME280;57358;51.094;6.760;2023-03-11T08:49:59;100229.72;;;0.56;89.91
70015;BME280;57358;51.094;6.760;2023-03-11T08:52:25;100356.84;;;1.63;89.75
70015;BME280;57358;51.094;6.760;2023-03-11T08:54:54;100257.09;;;1.09;88.23
70015;BME280;57358;51.094;6.760;2023-03-11T08:57:20;100186.75;;;0.52;88.44
70015;BME280;57358;51.094;6.760;2023-03-11T08:59:47;100354.97;;;1.68;88.39
70015;BME280;57358;51.094;6.760;2023-03-11T09:02:13;100330.63;;;1.78;87.53
70015;BME280;57358;51.094;6.760;2023-03-11T09:04:40;100331.38;;;1.83;85.52
70015;BME280;57358;51.094;6.760;2023-03-11T09:07:06;99958.81;;;-0.34;85.59
70015;BME280;57358;51.094;6.760;2023-03-11T09:09:35;100385.28;;;2.40;83.52
70015;BME280;57358;51.094;6.760;2023-03-11T09:12:03;100247.88;;;1.76;82.45
70015;BME280;57358;51.094;6.760;2023-03-11T09:14:30;100216.38;;;1.59;80.29
70015;BME280;57358;51.094;6.760;2023-03-11T09:16:56;100062.59;;;1.38;76.90
70015;BME280;57358;51.094;6.760;2023-03-11T09:19:23;100129.34;;;2.25;73.95
70015;BME280;57358;51.094;6.760;2023-03-11T09:21:49;100154.22;;;2.62;73.46
70015;BME280;57358;51.094;6.760;2023-03-11T09:24:15;100082.88;;;2.21;73.10
70015;BME280;57358;51.094;6.760;2023-03-11T09:26:42;100101.16;;;2.46;70.92
70015;BME280;57358;51.094;6.760;2023-03-11T09:29:08;100109.47;;;2.87;69.70
70015;BME280;57358;51.094;6.760;2023-03-11T09:31:35;100050.22;;;2.74;69.03
70015;BME280;57358;51.094;6.760;2023-03-11T09:34:01;100122.31;;;3.46;68.21
70015;BME280;57358;51.094;6.760;2023-03-11T09:36:27;99908.56;;;3.02;63.38
70015;BME280;57358;51.094;6.760;2023-03-11T09:38:54;99873.47;;;3.16;61.49
70015;BME280;57358;51.094;6.760;2023-03-11T09:41:45;99968.31;;;3.97;61.87
70015;BME280;57358;51.094;6.760;2023-03-11T09:47:07;99863.94;;;4.33;56.85
70015;BME280;57358;51.094;6.760;2023-03-11T09:52:36;99833.69;;;4.53;56.93
70015;BME280;57358;51.094;6.760;2023-03-11T09:55:35;99771.75;;;4.44;55.14
70015;BME280;57358;51.094;6.760;2023-03-11T09:58:03;99764.72;;;4.46;54.78
70015;BME280;57358;51.094;6.760;2023-03-11T10:00:34;99784.16;;;4.78;54.25
70015;BME280;57358;51.094;6.760;2023-03-11T10:03:01;99667.56;;;3.88;54.89
70015;BME280;57358;51.094;6.760;2023-03-11T10:05:28;99705.59;;;3.89;55.33
70015;BME280;57358;51.094;6.760;2023-03-11T10:08:18;99798.09;;;4.34;56.43
70015;BME280;57358;51.094;6.760;2023-03-11T10:10:56;99871.28;;;4.66;56.07
70015;BME280;57358;51.094;6.760;2023-03-11T10:13:34;99337.44;;;1.75;56.13
70015;BME280;57358;51.094;6.760;2023-03-11T10:16:18;99879.97;;;5.27;55.71
70015;BME280;57358;51.094;6.760;2023-03-11T10:19:00;99750.84;;;4.86;55.15
70015;BME280;57358;51.094;6.760;2023-03-11T10:27:02;99671.81;;;4.11;56.00
70015;BME280;57358;51.094;6.760;2023-03-11T10:29:46;99797.88;;;4.61;56.14
70015;BME280;57358;51.094;6.760;2023-03-11T10:32:21;99557.72;;;3.03;56.62
70015;BME280;57358;51.094;6.760;2023-03-11T10:34:55;99575.31;;;2.72;57.46
70015;BME280;57358;51.094;6.760;2023-03-11T10:37:25;99821.03;;;4.45;57.11
70015;BME280;57358;51.094;6.760;2023-03-11T10:40:28;99776.91;;;4.23;56.34
70015;BME280;57358;51.094;6.760;2023-03-11T10:42:57;99760.34;;;4.05;56.48
70015;BME280;57358;51.094;6.760;2023-03-11T10:45:27;99661.06;;;4.39;54.26
70015;BME280;57358;51.094;6.760;2023-03-11T10:47:57;99722.38;;;5.04;52.14
70015;BME280;57358;51.094;6.760;2023-03-11T10:50:23;99644.13;;;4.70;52.13
70015;BME280;57358;51.094;6.760;2023-03-11T10:53:08;99496.94;;;4.31;50.59
70015;BME280;57358;51.094;6.760;2023-03-11T10:55:44;99614.63;;;4.71;52.47
70015;BME280;57358;51.094;6.760;2023-03-11T10:58:14;99596.50;;;5.08;51.26
70015;BME280;57358;51.094;6.760;2023-03-11T11:00:41;99681.81;;;5.37;51.75
70015;BME280;57358;51.094;6.760;2023-03-11T11:03:22;99559.63;;;4.80;51.42
70015;BME280;57358;51.094;6.760;2023-03-11T11:06:01;99598.44;;;5.22;51.17
70015;BME280;57358;51.094;6.760;2023-03-11T11:08:28;99388.38;;;3.83;51.43
70015;BME280;57358;51.094;6.760;2023-03-11T11:10:57;99551.28;;;4.74;51.21
70015;BME280;57358;51.094;6.760;2023-03-11T11:13:27;99535.03;;;4.88;51.29
70015;BME280;57358;51.094;6.760;2023-03-11T11:18:43;99556.72;;;5.06;51.38
70015;BME280;57358;51.094;6.760;2023-03-11T11:21:36;99550.53;;;5.43;50.75
70015;BME280;57358;51.094;6.760;2023-03-11T11:24:11;99312.97;;;3.86;50.29
70015;BME280;57358;51.094;6.760;2023-03-11T11:26:39;99285.06;;;2.75;51.81
70015;BME280;57358;51.094;6.760;2023-03-11T11:31:38;99627.09;;;4.44;53.20
70015;BME280;57358;51.094;6.760;2023-03-11T11:36:55;99718.94;;;4.83;53.86
70015;BME280;57358;51.094;6.760;2023-03-11T11:39:25;99645.34;;;4.63;53.61
70015;BME280;57358;51.094;6.760;2023-03-11T11:41:54;99550.34;;;4.75;52.28
70015;BME280;57358;51.094;6.760;2023-03-11T11:44:26;99610.78;;;4.80;52.19
70015;BME280;57358;51.094;6.760;2023-03-11T11:46:58;99825.44;;;6.20;52.42
70015;BME280;57358;51.094;6.760;2023-03-11T11:49:31;99804.41;;;6.42;51.84
70015;BME280;57358;51.094;6.760;2023-03-11T11:52:06;99647.50;;;6.35;49.93
70015;BME280;57358;51.094;6.760;2023-03-11T11:54:37;99573.56;;;6.21;49.77
70015;BME280;57358;51.094;6.760;2023-03-11T11:57:17;99597.22;;;6.33;49.55
70015;BME280;57358;51.094;6.760;2023-03-11T11:59:45;99650.66;;;7.07;48.42
70015;BME280;57358;51.094;6.760;2023-03-11T12:10:32;99644.69;;;7.67;47.04
70015;BME280;57358;51.094;6.760;2023-03-11T12:13:20;99412.38;;;6.46;46.88
70015;BME280;57358;51.094;6.760;2023-03-11T12:15:58;99234.16;;;5.40;46.95
70015;BME280;57358;51.094;6.760;2023-03-11T12:18:32;99303.66;;;5.05;48.11
70015;BME280;57358;51.094;6.760;2023-03-11T12:21:08;99326.59;;;4.97;48.72
70015;BME280;57358;51.094;6.760;2023-03-11T12:23:53;99573.09;;;6.30;49.08
70015;BME280;57358;51.094;6.760;2023-03-11T12:26:26;99374.59;;;5.25;49.38
70015;BME280;57358;51.094;6.760;2023-03-11T12:29:14;99636.78;;;6.24;50.25
70015;BME280;57358;51.094;6.760;2023-03-11T12:31:46;99439.97;;;5.52;49.74
70015;BME280;57358;51.094;6.760;2023-03-11T12:34:15;99551.47;;;6.12;50.40
70015;BME280;57358;51.094;6.760;2023-03-11T12:36:46;99550.84;;;6.07;50.02
70015;BME280;57358;51.094;6.760;2023-03-11T12:42:37;99550.00;;;6.87;47.35
70015;BME280;57358;51.094;6.760;2023-03-11T12:45:46;99365.13;;;5.73;48.12
70015;BME280;57358;51.094;6.760;2023-03-11T12:50:55;99445.59;;;6.43;48.27
70015;BME280;57358;51.094;6.760;2023-03-11T12:53:45;99508.31;;;6.39;48.60
70015;BME280;57358;51.094;6.760;2023-03-11T13:07:39;99511.00;;;6.54;48.53
70015;BME280;57358;51.094;6.760;2023-03-11T13:12:39;99559.97;;;6.31;50.72
70015;BME280;57358;51.094;6.760;2023-03-11T13:18:01;99605.09;;;5.98;50.57
70015;BME280;57358;51.094;6.760;2023-03-11T13:33:47;99438.84;;;5.40;49.80
70015;BME280;57358;51.094;6.760;2023-03-11T13:36:23;99553.19;;;6.45;48.53
70015;BME280;57358;51.094;6.760;2023-03-11T13:41:31;99545.09;;;6.33;48.72
70015;BME280;57358;51.094;6.760;2023-03-11T13:44:13;99738.63;;;7.37;49.43
70015;BME280;57358;51.094;6.760;2023-03-11T13:46:45;99807.03;;;7.91;49.57
70015;BME280;57358;51.094;6.760;2023-03-11T13:51:46;99789.16;;;8.46;47.84
70015;BME280;57358;51.094;6.760;2023-03-11T13:56:57;99495.38;;;6.54;47.90
70015;BME280;57358;51.094;6.760;2023-03-11T13:59:33;99530.59;;;6.61;48.28
70015;BME280;57358;51.094;6.760;2023-03-11T14:02:15;99454.00;;;6.16;48.19
70015;BME280;57358;51.094;6.760;2023-03-11T14:04:48;99409.66;;;5.84;47.44
70015;BME280;57358;51.094;6.760;2023-03-11T14:07:28;99420.34;;;5.62;48.95
70015;BME280;57358;51.094;6.760;2023-03-11T14:10:28;99543.00;;;6.24;48.55
70015;BME280;57358;51.094;6.760;2023-03-11T14:13:16;99469.34;;;5.87;48.20
70015;BME280;57358;51.094;6.760;2023-03-11T14:15:53;99634.91;;;6.93;47.83
70015;BME280;57358;51.094;6.760;2023-03-11T14:18:42;99540.44;;;6.56;47.70
70015;BME280;57358;51.094;6.760;2023-03-11T14:21:20;99496.63;;;6.47;46.65